Time;durP1;ratioP1;P1;durP2;ratioP2;P2;SDS_P1;SDS_P2;PMS_P1;PMS_P2;Temp;Humidity;BMP_temperature;BMP_pressure;BME280_temperature;BME280_humidity;BME280_pressure;Samples;Min_cycle;Max_cycle;Signal;HPM_P1;HPM_P2
2023/06/30 00:00:17;;;;;;;4.63;3.80;;;26.60;38.50;;;;;;5032300;28;20524;-57
2023/06/30 00:02:43;;;;;;;4.80;4.17;;;26.60;37.60;;;;;;5032239;28;20158;-55
2023/06/30 00:05:10;;;;;;;7.70;4.33;;;26.60;36.80;;;;;;5032290;28;20423;-54
2023/06/30 00:07:36;;;;;;;5.00;4.27;;;26.60;36.60;;;;;;5032129;28;20413;-56
2023/06/30 00:10:03;;;;;;;6.87;4.37;;;26.50;37.10;;;;;;5031831;28;20919;-54
2023/06/30 00:12:29;;;;;;;4.90;4.03;;;26.50;37.40;;;;;;5032139;28;20448;-56
2023/06/30 00:14:55;;;;;;;4.73;4.10;;;26.50;36.80;;;;;;5031986;28;20492;-54
2023/06/30 00:17:20;;;;;;;5.90;3.70;;;26.50;37.60;;;;;;5032381;28;20896;-54
2023/06/30 00:19:50;;;;;;;4.47;4.07;;;26.50;37.70;;;;;;5032032;28;20667;-55
2023/06/30 00:22:19;;;;;;;4.53;3.73;;;26.50;37.60;;;;;;5031800;28;20260;-54
2023/06/30 00:24:47;;;;;;;3.70;2.87;;;26.40;37.40;;;;;;5032346;28;20408;-55
2023/06/30 00:27:12;;;;;;;3.97;3.63;;;26.40;37.20;;;;;;5032226;28;20893;-53
2023/06/30 00:29:38;;;;;;;5.10;3.83;;;26.40;37.20;;;;;;5031653;28;20460;-57
2023/06/30 00:32:04;;;;;;;6.97;3.87;;;26.40;37.20;;;;;;5032030;28;20172;-57
2023/06/30 00:34:30;;;;;;;4.00;3.70;;;26.40;38.50;;;;;;5031954;28;20201;-55
2023/06/30 00:36:56;;;;;;;5.13;3.47;;;26.40;39.30;;;;;;5031937;28;20411;-57
2023/06/30 00:39:21;;;;;;;4.77;3.83;;;26.30;38.30;;;;;;5031741;28;20178;-56
2023/06/30 00:41:47;;;;;;;5.57;4.30;;;26.30;38.80;;;;;;5032088;28;20174;-54
2023/06/30 00:44:13;;;;;;;7.53;4.40;;;26.30;38.40;;;;;;5032269;28;20174;-53
2023/06/30 00:46:39;;;;;;;4.53;3.93;;;26.30;36.80;;;;;;5030728;28;20190;-55
2023/06/30 00:49:05;;;;;;;4.90;4.40;;;26.20;36.60;;;;;;5031891;28;20178;-57
2023/06/30 00:51:31;;;;;;;4.00;3.60;;;26.20;36.70;;;;;;5031709;28;20194;-56
2023/06/30 00:53:57;;;;;;;4.17;3.77;;;26.20;36.80;;;;;;5031858;28;20964;-56
2023/06/30 00:56:23;;;;;;;5.63;4.20;;;26.20;37.70;;;;;;5032244;28;20456;-55
2023/06/30 00:58:49;;;;;;;6.93;4.50;;;26.20;36.60;;;;;;5031974;28;20169;-55
2023/06/30 01:01:28;;;;;;;4.23;3.63;;;26.20;36.80;;;;;;5031968;28;20218;-57
2023/06/30 01:04:02;;;;;;;5.43;4.07;;;26.20;36.90;;;;;;5032118;28;20178;-53
2023/06/30 01:06:37;;;;;;;5.30;3.67;;;26.20;37.30;;;;;;5032392;28;20868;-57
2023/06/30 01:09:18;;;;;;;10.20;7.90;;;26.20;37.10;;;;;;5032112;28;20404;-54
2023/06/30 01:11:46;;;;;;;9.70;8.50;;;26.20;37.50;;;;;;5032117;28;20427;-54
2023/06/30 01:14:14;;;;;;;8.73;7.10;;;26.20;38.40;;;;;;5032119;28;20820;-56
2023/06/30 01:16:41;;;;;;;10.00;9.00;;;26.20;38.80;;;;;;5030807;28;20446;-57
2023/06/30 01:19:37;;;;;;;11.90;9.13;;;26.20;39.40;;;;;;5031938;28;20397;-55
2023/06/30 01:22:25;;;;;;;6.90;6.20;;;26.10;40.20;;;;;;5031849;28;20508;-57
2023/06/30 01:24:56;;;;;;;8.60;7.70;;;26.10;39.70;;;;;;5031658;28;20895;-57
2023/06/30 01:27:22;;;;;;;7.23;5.73;;;26.00;40.20;;;;;;5034463;28;20905;-55
2023/06/30 01:29:50;;;;;;;15.30;13.37;;;26.00;40.20;;;;;;5035358;28;20506;-56
2023/06/30 01:32:16;;;;;;;13.33;9.87;;;26.00;40.00;;;;;;5034649;28;20404;-57
2023/06/30 01:34:44;;;;;;;20.80;18.70;;;26.00;41.20;;;;;;5035633;28;20466;-57
2023/06/30 01:37:10;;;;;;;18.70;16.80;;;26.00;40.90;;;;;;5035819;28;20407;-55
2023/06/30 01:39:36;;;;;;;18.97;16.27;;;26.00;40.40;;;;;;5035210;28;20421;-55
2023/06/30 01:42:03;;;;;;;17.33;15.50;;;26.00;40.80;;;;;;5035729;28;20413;-57
2023/06/30 01:44:29;;;;;;;10.30;6.80;;;26.00;41.40;;;;;;5035148;28;20417;-57
2023/06/30 01:46:54;;;;;;;13.23;11.90;;;26.00;40.60;;;;;;5035233;28;20777;-55
2023/06/30 01:49:21;;;;;;;5.80;5.20;;;25.90;41.00;;;;;;5034815;28;20416;-57
2023/06/30 01:51:46;;;;;;;7.00;6.33;;;25.90;40.80;;;;;;5035137;28;20197;-54
2023/06/30 01:54:12;;;;;;;5.50;4.30;;;25.90;40.80;;;;;;5034824;28;21277;-57
2023/06/30 01:56:45;;;;;;;4.80;4.40;;;25.80;40.40;;;;;;5033685;28;20177;-57
2023/06/30 01:59:11;;;;;;;5.87;5.10;;;25.80;40.60;;;;;;5034893;28;20162;-57
2023/06/30 02:01:37;;;;;;;5.73;3.90;;;25.80;40.80;;;;;;5034667;28;20432;-55
2023/06/30 02:04:03;;;;;;;5.47;4.97;;;25.80;41.20;;;;;;5034679;28;20649;-57
2023/06/30 02:06:29;;;;;;;4.67;4.27;;;25.80;42.20;;;;;;5033300;28;20184;-56
2023/06/30 02:08:54;;;;;;;5.87;3.93;;;25.70;41.60;;;;;;5034877;28;20412;-55
2023/06/30 02:11:21;;;;;;;4.87;4.37;;;25.70;40.30;;;;;;5034158;28;20601;-57
2023/06/30 02:13:46;;;;;;;8.37;4.60;;;25.70;40.40;;;;;;5034267;28;20289;-56
2023/06/30 02:16:12;;;;;;;9.60;6.60;;;25.70;40.60;;;;;;5034339;28;20487;-57
2023/06/30 02:18:39;;;;;;;10.87;9.73;;;25.70;40.60;;;;;;5034253;28;20177;-57
2023/06/30 02:21:05;;;;;;;7.73;6.00;;;25.70;40.30;;;;;;5033936;28;20198;-57
2023/06/30 02:23:31;;;;;;;9.70;6.70;;;25.70;40.80;;;;;;5034111;28;20420;-57
2023/06/30 02:25:57;;;;;;;7.50;6.20;;;25.70;41.60;;;;;;5034078;28;20444;-57
2023/06/30 02:28:23;;;;;;;6.57;5.93;;;25.70;42.10;;;;;;5033068;28;20681;-55
2023/06/30 02:30:49;;;;;;;7.07;6.23;;;25.70;42.50;;;;;;5033662;28;20495;-56
2023/06/30 02:33:15;;;;;;;10.33;5.40;;;25.70;43.10;;;;;;5032588;28;20177;-56
2023/06/30 02:35:41;;;;;;;5.73;4.53;;;25.60;42.80;;;;;;5033690;28;20205;-56
2023/06/30 02:38:07;;;;;;;5.00;4.50;;;25.50;42.60;;;;;;5033921;28;20466;-58
2023/06/30 02:40:33;;;;;;;5.73;4.60;;;25.50;43.10;;;;;;5033402;28;20466;-55
2023/06/30 02:42:59;;;;;;;7.33;4.40;;;25.50;42.20;;;;;;5033689;28;20811;-54
2023/06/30 02:45:25;;;;;;;5.20;4.70;;;25.50;42.40;;;;;;5032396;28;20474;-57
2023/06/30 02:47:51;;;;;;;7.83;5.60;;;25.50;42.00;;;;;;5033493;28;20853;-55
2023/06/30 02:50:18;;;;;;;5.93;4.83;;;25.40;41.70;;;;;;5033189;28;20201;-57
2023/06/30 02:52:44;;;;;;;8.77;7.10;;;25.50;42.40;;;;;;5033686;28;20225;-57
2023/06/30 02:55:09;;;;;;;10.90;9.07;;;25.50;43.10;;;;;;5033336;28;20998;-57
2023/06/30 02:57:35;;;;;;;10.63;8.20;;;25.40;43.00;;;;;;5033383;28;20435;-57
2023/06/30 03:00:01;;;;;;;7.20;6.40;;;25.40;42.70;;;;;;5032994;28;20421;-56
2023/06/30 03:02:27;;;;;;;10.10;5.63;;;25.50;42.10;;;;;;5033293;28;20170;-56
2023/06/30 03:04:55;;;;;;;8.03;7.00;;;25.50;41.60;;;;;;5031900;28;20425;-58
2023/06/30 03:07:21;;;;;;;10.50;6.73;;;25.40;42.80;;;;;;5033169;28;20558;-56
2023/06/30 03:09:47;;;;;;;8.03;6.50;;;25.40;43.10;;;;;;5032805;28;20437;-55
2023/06/30 03:12:13;;;;;;;7.77;6.20;;;25.30;43.40;;;;;;5031824;28;20260;-58
2023/06/30 03:14:39;;;;;;;6.57;5.63;;;25.30;43.60;;;;;;5033268;28;20685;-55
2023/06/30 03:17:05;;;;;;;7.50;6.17;;;25.30;43.70;;;;;;5032976;28;20435;-57
2023/06/30 03:19:31;;;;;;;8.07;6.43;;;25.30;44.20;;;;;;5032558;28;20893;-55
2023/06/30 03:21:56;;;;;;;11.13;7.10;;;25.30;43.80;;;;;;5032879;28;20231;-56
2023/06/30 03:24:22;;;;;;;7.23;6.17;;;25.30;43.10;;;;;;5033272;28;20177;-58
2023/06/30 03:26:48;;;;;;;7.03;6.30;;;25.30;43.20;;;;;;5032887;28;20174;-57
2023/06/30 03:29:14;;;;;;;15.83;7.33;;;25.40;43.80;;;;;;5032541;28;20582;-57
2023/06/30 03:31:39;;;;;;;8.03;6.10;;;25.30;44.30;;;;;;5032549;28;20296;-57
2023/06/30 03:34:05;;;;;;;6.10;5.27;;;25.30;44.40;;;;;;5032593;28;20538;-55
2023/06/30 03:36:31;;;;;;;6.90;5.63;;;25.30;44.40;;;;;;5032741;28;20342;-57
2023/06/30 03:38:56;;;;;;;7.10;6.20;;;25.30;44.20;;;;;;5032651;28;20201;-55
2023/06/30 03:41:22;;;;;;;6.43;4.93;;;25.30;44.60;;;;;;5032381;28;20190;-55
2023/06/30 03:43:48;;;;;;;6.10;5.37;;;25.30;44.30;;;;;;5032570;28;20177;-59
2023/06/30 03:46:15;;;;;;;6.57;6.00;;;25.20;44.70;;;;;;5032501;28;20177;-58
2023/06/30 03:48:41;;;;;;;6.63;5.90;;;25.20;45.10;;;;;;5032087;28;20174;-56
2023/06/30 03:51:07;;;;;;;6.70;6.00;;;25.20;44.90;;;;;;5031978;28;20439;-56
2023/06/30 03:53:32;;;;;;;12.53;6.40;;;25.20;44.40;;;;;;5032378;28;20174;-58
2023/06/30 03:55:58;;;;;;;7.70;6.20;;;25.20;44.20;;;;;;5032382;28;20166;-55
2023/06/30 03:58:24;;;;;;;10.33;6.43;;;25.20;43.90;;;;;;5032421;28;20174;-56
2023/06/30 04:00:50;;;;;;;9.27;6.63;;;25.20;44.20;;;;;;5032071;28;20662;-58
2023/06/30 04:03:15;;;;;;;11.93;6.63;;;25.20;44.00;;;;;;5032149;28;20971;-58
2023/06/30 04:05:41;;;;;;;7.97;6.53;;;25.20;44.00;;;;;;5032524;28;20180;-56
2023/06/30 04:08:07;;;;;;;6.87;6.07;;;25.20;44.50;;;;;;5032239;28;20264;-55
2023/06/30 04:10:33;;;;;;;9.17;6.90;;;25.20;45.30;;;;;;5031924;28;20416;-57
2023/06/30 04:12:59;;;;;;;6.53;5.93;;;25.20;44.70;;;;;;5030881;28;20174;-55
2023/06/30 04:15:25;;;;;;;6.00;5.40;;;25.20;44.40;;;;;;5032018;28;20559;-55
2023/06/30 04:17:50;;;;;;;6.83;6.23;;;25.20;44.70;;;;;;5031988;28;20165;-58
2023/06/30 04:20:16;;;;;;;7.70;6.43;;;25.20;44.90;;;;;;5030533;28;20243;-56
2023/06/30 04:22:42;;;;;;;6.33;5.73;;;25.20;44.70;;;;;;5032336;28;20181;-56
2023/06/30 04:25:08;;;;;;;5.47;4.77;;;25.20;44.40;;;;;;5032123;28;20178;-56
2023/06/30 04:27:34;;;;;;;6.47;5.83;;;25.30;44.30;;;;;;5032091;28;20202;-56
2023/06/30 04:30:00;;;;;;;6.20;5.57;;;25.30;44.50;;;;;;5031627;28;20221;-58
2023/06/30 04:32:26;;;;;;;7.40;6.17;;;25.30;44.10;;;;;;5032045;28;20476;-59
2023/06/30 04:34:52;;;;;;;5.87;5.37;;;25.30;43.70;;;;;;5031837;28;20531;-55
2023/06/30 04:37:18;;;;;;;8.00;6.10;;;25.30;43.70;;;;;;5031952;28;20170;-58
2023/06/30 04:39:46;;;;;;;7.30;6.60;;;25.30;43.20;;;;;;5031785;28;20181;-55
2023/06/30 04:42:13;;;;;;;10.20;5.50;;;25.30;43.30;;;;;;5031809;28;20751;-57
2023/06/30 04:44:38;;;;;;;10.37;5.90;;;25.30;43.30;;;;;;5031719;28;20416;-58
2023/06/30 04:47:04;;;;;;;6.73;5.80;;;25.30;43.40;;;;;;5031909;28;20411;-55
2023/06/30 04:49:30;;;;;;;9.77;5.47;;;25.40;43.40;;;;;;5031537;28;20176;-55
2023/06/30 04:51:56;;;;;;;7.73;5.70;;;25.40;43.10;;;;;;5031707;28;20486;-57
2023/06/30 04:54:22;;;;;;;8.80;5.40;;;25.50;43.40;;;;;;5032009;28;20335;-56
2023/06/30 04:56:48;;;;;;;7.50;5.30;;;25.40;43.60;;;;;;5031834;28;20668;-56
2023/06/30 04:59:13;;;;;;;7.80;5.87;;;25.40;43.20;;;;;;5031424;28;20495;-58
2023/06/30 05:01:39;;;;;;;8.63;5.60;;;25.50;43.10;;;;;;5032946;28;20237;-55
2023/06/30 05:04:05;;;;;;;7.47;6.57;;;25.50;43.20;;;;;;5035559;28;20170;-57
2023/06/30 05:06:30;;;;;;;8.80;5.73;;;25.50;43.90;;;;;;5035445;28;20184;-58
2023/06/30 05:08:56;;;;;;;6.47;5.87;;;25.50;43.30;;;;;;5035443;28;20220;-56
2023/06/30 05:11:22;;;;;;;7.27;4.87;;;25.60;43.40;;;;;;5033847;28;20202;-60
2023/06/30 05:13:48;;;;;;;8.53;6.80;;;25.60;43.10;;;;;;5035198;28;20209;-56
2023/06/30 05:16:13;;;;;;;6.60;5.80;;;25.70;42.30;;;;;;5035469;28;20584;-56
2023/06/30 05:18:39;;;;;;;7.17;6.17;;;25.70;42.40;;;;;;5035293;28;20209;-58
2023/06/30 05:21:07;;;;;;;7.73;6.07;;;25.60;42.60;;;;;;5034967;28;20182;-56
2023/06/30 05:23:33;;;;;;;10.87;6.80;;;25.60;42.00;;;;;;5033984;28;20178;-56
2023/06/30 05:25:59;;;;;;;6.60;6.10;;;25.60;41.60;;;;;;5035432;28;20896;-58
2023/06/30 05:28:24;;;;;;;8.53;6.57;;;25.60;41.60;;;;;;5035091;28;20678;-56
2023/06/30 05:30:50;;;;;;;7.80;6.60;;;25.60;41.60;;;;;;5034531;28;20209;-57
2023/06/30 05:33:16;;;;;;;7.93;6.07;;;25.60;41.10;;;;;;5034922;28;20253;-58
2023/06/30 05:35:42;;;;;;;7.50;6.80;;;25.70;41.60;;;;;;5034920;28;20606;-55
2023/06/30 05:38:07;;;;;;;9.83;7.30;;;25.70;41.90;;;;;;5034944;28;20170;-55
2023/06/30 05:40:33;;;;;;;7.30;6.40;;;25.70;41.30;;;;;;5034633;28;20595;-58
2023/06/30 05:42:59;;;;;;;10.83;6.80;;;25.80;40.90;;;;;;5034749;28;20224;-56
2023/06/30 05:45:25;;;;;;;8.00;7.20;;;25.80;41.00;;;;;;5033397;28;20285;-58
2023/06/30 05:47:51;;;;;;;8.03;7.30;;;25.90;41.10;;;;;;5034794;28;20174;-57
2023/06/30 05:50:17;;;;;;;9.47;8.17;;;25.90;41.00;;;;;;5034365;28;20773;-55
2023/06/30 05:52:43;;;;;;;10.60;7.37;;;25.90;41.10;;;;;;5034627;28;20184;-58
2023/06/30 05:55:09;;;;;;;13.90;7.87;;;25.90;41.20;;;;;;5034426;28;20662;-57
2023/06/30 05:57:34;;;;;;;7.50;6.73;;;25.90;40.90;;;;;;5034517;28;20454;-56
2023/06/30 06:00:00;;;;;;;8.07;7.37;;;25.90;40.40;;;;;;5033316;28;20534;-56
2023/06/30 06:02:26;;;;;;;7.60;6.90;;;25.90;40.70;;;;;;5034448;28;20634;-59
2023/06/30 06:04:51;;;;;;;7.13;6.40;;;25.90;39.90;;;;;;5034516;28;20178;-56
2023/06/30 06:07:17;;;;;;;7.70;6.90;;;25.90;40.10;;;;;;5034304;28;20223;-56
2023/06/30 06:09:43;;;;;;;8.97;6.77;;;25.90;40.00;;;;;;5034028;28;20606;-57
2023/06/30 06:12:09;;;;;;;7.40;6.80;;;25.90;40.10;;;;;;5033879;28;20177;-56
2023/06/30 06:14:36;;;;;;;7.33;6.60;;;25.90;40.50;;;;;;5034151;28;20217;-57
2023/06/30 06:17:01;;;;;;;7.87;7.00;;;25.90;40.80;;;;;;5034147;28;20416;-58
2023/06/30 06:19:27;;;;;;;8.50;7.20;;;25.90;40.80;;;;;;5033876;28;20400;-55
2023/06/30 06:21:53;;;;;;;7.03;6.30;;;25.90;40.50;;;;;;5033995;28;20236;-55
2023/06/30 06:24:18;;;;;;;11.57;8.00;;;26.00;40.60;;;;;;5034001;28;20185;-58
2023/06/30 06:26:44;;;;;;;7.27;6.53;;;26.00;40.30;;;;;;5032690;28;20182;-58
2023/06/30 06:29:14;;;;;;;9.73;7.10;;;26.00;40.50;;;;;;5033731;28;20174;-55
2023/06/30 06:31:40;;;;;;;8.20;6.70;;;25.90;40.00;;;;;;5033654;28;20217;-58
2023/06/30 06:34:05;;;;;;;7.57;6.73;;;25.90;40.10;;;;;;5034111;28;20549;-55
2023/06/30 06:36:31;;;;;;;7.70;6.27;;;25.90;40.40;;;;;;5033887;28;20487;-55
2023/06/30 06:38:57;;;;;;;7.70;6.93;;;25.90;40.90;;;;;;5033734;28;20165;-58
2023/06/30 06:41:23;;;;;;;9.20;7.63;;;26.10;41.20;;;;;;5033433;28;20197;-57
2023/06/30 06:43:48;;;;;;;9.83;7.60;;;26.10;40.90;;;;;;5033582;28;20201;-56
2023/06/30 06:46:14;;;;;;;9.97;7.20;;;26.10;40.60;;;;;;5032452;28;20239;-56
2023/06/30 06:48:40;;;;;;;7.67;6.87;;;26.10;40.60;;;;;;5033720;28;20284;-56
2023/06/30 06:51:06;;;;;;;10.53;6.93;;;26.10;40.90;;;;;;5033310;28;20230;-59
2023/06/30 06:53:33;;;;;;;7.87;6.57;;;26.10;41.40;;;;;;5033465;28;20190;-56
2023/06/30 06:55:59;;;;;;;7.77;6.97;;;26.20;40.70;;;;;;5033418;28;20170;-56
2023/06/30 06:58:30;;;;;;;12.50;6.80;;;26.10;40.90;;;;;;5033338;28;20415;-58
2023/06/30 07:00:57;;;;;;;10.43;7.27;;;26.20;40.70;;;;;;5033229;28;20432;-57
2023/06/30 07:03:22;;;;;;;8.63;6.20;;;26.20;40.90;;;;;;5033523;28;20503;-55
2023/06/30 07:05:49;;;;;;;6.97;6.37;;;26.20;41.10;;;;;;5033506;28;20964;-57
2023/06/30 07:08:16;;;;;;;12.87;6.97;;;26.20;41.40;;;;;;5033145;28;20198;-57
2023/06/30 07:10:46;;;;;;;7.47;6.50;;;26.20;41.90;;;;;;5032807;28;20439;-56
2023/06/30 07:13:12;;;;;;;8.60;6.00;;;26.20;42.40;;;;;;5033021;28;20416;-58
2023/06/30 07:15:38;;;;;;;9.63;7.70;;;26.20;42.80;;;;;;5033029;28;20971;-55
2023/06/30 07:18:04;;;;;;;8.70;7.90;;;26.20;42.50;;;;;;5033133;28;20408;-56
2023/06/30 07:20:30;;;;;;;11.60;6.40;;;26.30;41.70;;;;;;5032791;28;20966;-56
2023/06/30 07:22:56;;;;;;;7.50;6.80;;;26.20;41.90;;;;;;5032885;28;20224;-56
2023/06/30 07:25:23;;;;;;;8.37;7.57;;;26.30;41.90;;;;;;5032081;28;20896;-56
2023/06/30 07:27:58;;;;;;;10.27;6.80;;;26.30;41.30;;;;;;5032746;28;20423;-58
2023/06/30 07:30:26;;;;;;;7.43;6.43;;;26.30;40.60;;;;;;5032433;28;20797;-56
2023/06/30 07:32:53;;;;;;;7.63;6.60;;;26.30;40.80;;;;;;5032793;28;20851;-56
2023/06/30 07:35:20;;;;;;;7.63;6.43;;;26.30;41.00;;;;;;5032589;28;20491;-59
2023/06/30 07:37:48;;;;;;;8.20;7.60;;;26.30;40.80;;;;;;5032622;28;20487;-56
2023/06/30 07:40:16;;;;;;;7.20;6.50;;;26.40;40.60;;;;;;5032370;28;20516;-58
2023/06/30 07:42:42;;;;;;;8.37;7.53;;;26.40;40.60;;;;;;5032671;28;20413;-56
2023/06/30 07:45:10;;;;;;;7.73;6.93;;;26.40;40.30;;;;;;5032592;28;20408;-56
2023/06/30 07:47:37;;;;;;;12.40;7.87;;;26.50;40.20;;;;;;5032564;28;20408;-58
2023/06/30 07:50:09;;;;;;;9.47;7.90;;;26.50;40.10;;;;;;5032115;28;20436;-56
2023/06/30 07:52:36;;;;;;;9.80;7.70;;;26.50;39.60;;;;;;5032372;28;20507;-58
2023/06/30 07:55:04;;;;;;;9.40;7.00;;;26.60;39.50;;;;;;5032303;28;20490;-56
2023/06/30 07:57:30;;;;;;;14.30;8.40;;;26.60;39.50;;;;;;5032288;28;20409;-56
2023/06/30 07:59:56;;;;;;;8.77;6.80;;;26.60;39.60;;;;;;5032077;28;20432;-56
2023/06/30 08:02:22;;;;;;;8.50;7.33;;;26.60;39.50;;;;;;5032313;28;20181;-58
2023/06/30 08:04:47;;;;;;;10.10;8.40;;;26.60;39.90;;;;;;5032151;28;20205;-56
2023/06/30 08:07:13;;;;;;;9.97;9.00;;;26.70;40.00;;;;;;5032276;28;20665;-55
2023/06/30 08:09:39;;;;;;;9.83;8.83;;;26.70;39.90;;;;;;5031956;28;20201;-56
2023/06/30 08:12:05;;;;;;;9.80;7.60;;;26.70;40.20;;;;;;5032138;28;20173;-59
2023/06/30 08:14:31;;;;;;;10.70;8.87;;;26.70;40.50;;;;;;5032347;28;20201;-57
2023/06/30 08:16:56;;;;;;;12.30;8.80;;;26.80;40.90;;;;;;5032377;28;20754;-56
2023/06/30 08:19:22;;;;;;;11.23;10.13;;;26.80;40.70;;;;;;5031877;28;21019;-58
2023/06/30 08:21:48;;;;;;;11.03;9.90;;;26.90;40.10;;;;;;5032251;28;20177;-56
2023/06/30 08:24:13;;;;;;;12.77;10.13;;;26.90;40.20;;;;;;5032504;28;20581;-54
2023/06/30 08:26:39;;;;;;;15.27;9.57;;;26.90;40.50;;;;;;5032070;28;20177;-57
2023/06/30 08:29:05;;;;;;;8.63;7.53;;;26.90;40.80;;;;;;5031919;28;20220;-55
2023/06/30 08:31:31;;;;;;;9.83;8.83;;;26.90;40.70;;;;;;5031769;28;20460;-54
2023/06/30 08:33:56;;;;;;;9.50;8.53;;;26.90;41.10;;;;;;5031982;28;20285;-57
2023/06/30 08:36:23;;;;;;;10.63;9.63;;;26.90;41.00;;;;;;5034830;28;20614;-54
2023/06/30 08:38:48;;;;;;;10.40;9.40;;;27.00;42.00;;;;;;5036168;28;20404;-55
2023/06/30 08:41:15;;;;;;;12.43;11.07;;;27.00;42.10;;;;;;5035696;28;20481;-57
2023/06/30 08:43:41;;;;;;;13.33;10.00;;;27.00;42.40;;;;;;5035935;28;20181;-57
2023/06/30 08:46:10;;;;;;;12.93;10.13;;;27.00;42.50;;;;;;5035905;28;20400;-54
2023/06/30 08:48:36;;;;;;;18.37;11.07;;;27.10;42.20;;;;;;5035821;28;20943;-56
2023/06/30 08:51:03;;;;;;;11.53;10.40;;;27.20;42.30;;;;;;5036004;28;20433;-58
2023/06/30 08:53:31;;;;;;;12.43;9.87;;;27.20;41.30;;;;;;5035938;28;20566;-55
2023/06/30 08:55:57;;;;;;;14.03;12.63;;;27.20;41.10;;;;;;5035851;28;20513;-56
2023/06/30 08:58:28;;;;;;;11.17;9.90;;;27.20;41.30;;;;;;5035762;28;20440;-55
2023/06/30 09:00:55;;;;;;;12.77;11.30;;;27.30;41.20;;;;;;5035464;28;20424;-54
2023/06/30 09:03:21;;;;;;;14.20;11.87;;;27.30;42.10;;;;;;5035612;28;20415;-55
2023/06/30 09:05:50;;;;;;;10.63;9.57;;;27.50;42.50;;;;;;5035668;28;20419;-56
2023/06/30 09:08:26;;;;;;;12.50;11.00;;;27.60;42.10;;;;;;5035541;28;20450;-57
2023/06/30 09:10:53;;;;;;;16.40;10.70;;;27.70;41.70;;;;;;5035217;28;20428;-54
2023/06/30 09:13:21;;;;;;;12.90;11.70;;;27.70;41.60;;;;;;5035514;28;20412;-56
2023/06/30 09:15:47;;;;;;;12.03;10.70;;;27.80;41.20;;;;;;5035382;28;20506;-54
2023/06/30 09:18:13;;;;;;;14.60;10.70;;;27.80;40.70;;;;;;5034251;28;20412;-55
2023/06/30 09:20:40;;;;;;;14.90;12.40;;;27.80;40.50;;;;;;5035148;28;20522;-57
2023/06/30 09:23:06;;;;;;;17.00;11.30;;;27.80;39.80;;;;;;5035294;28;20487;-54
2023/06/30 09:25:35;;;;;;;12.17;10.90;;;27.70;40.00;;;;;;5035482;28;20506;-56
2023/06/30 09:28:08;;;;;;;12.83;11.07;;;27.70;40.00;;;;;;5035136;28;20181;-54
2023/06/30 09:30:42;;;;;;;13.40;12.13;;;27.70;40.40;;;;;;5034690;28;20448;-56
2023/06/30 09:33:08;;;;;;;11.13;10.03;;;27.70;40.40;;;;;;5033866;28;20485;-57
2023/06/30 09:35:42;;;;;;;11.70;10.40;;;27.80;40.60;;;;;;5035081;28;20479;-55
2023/06/30 09:38:18;;;;;;;13.67;10.60;;;27.90;40.50;;;;;;5034949;28;20412;-54
2023/06/30 09:40:47;;;;;;;11.73;10.50;;;28.00;41.20;;;;;;5034644;28;20916;-56
2023/06/30 09:43:21;;;;;;;12.30;11.10;;;28.10;41.10;;;;;;5034862;28;20401;-54
2023/06/30 09:45:55;;;;;;;12.57;11.30;;;28.20;40.40;;;;;;5034819;28;20415;-54
2023/06/30 09:48:26;;;;;;;11.80;10.63;;;28.30;41.00;;;;;;5033935;28;20439;-54
2023/06/30 09:50:52;;;;;;;13.63;11.17;;;28.40;40.50;;;;;;5033197;28;20530;-55
2023/06/30 09:53:19;;;;;;;11.90;10.60;;;28.50;39.70;;;;;;5034858;28;20887;-57
2023/06/30 09:55:49;;;;;;;12.20;10.90;;;28.60;39.80;;;;;;5034709;28;20456;-54
2023/06/30 09:58:20;;;;;;;12.23;10.30;;;28.70;39.90;;;;;;5034681;28;20400;-54
2023/06/30 10:00:47;;;;;;;12.60;10.27;;;28.70;39.00;;;;;;5034206;28;20428;-57
2023/06/30 10:03:19;;;;;;;15.07;11.90;;;28.70;39.00;;;;;;5034473;28;20401;-57
2023/06/30 10:05:48;;;;;;;11.57;9.80;;;28.70;38.30;;;;;;5034389;28;20427;-56
2023/06/30 10:08:14;;;;;;;11.43;10.17;;;28.70;37.70;;;;;;5034512;28;20536;-57
2023/06/30 10:10:42;;;;;;;10.90;8.50;;;28.60;38.30;;;;;;5034247;28;20464;-54
2023/06/30 10:13:07;;;;;;;9.00;8.10;;;28.60;38.80;;;;;;5034321;28;20423;-54
2023/06/30 10:15:34;;;;;;;11.00;8.50;;;28.60;38.00;;;;;;5034394;28;20539;-57
2023/06/30 10:18:02;;;;;;;10.57;7.83;;;28.60;38.40;;;;;;5034197;28;20248;-54
2023/06/30 10:20:28;;;;;;;11.90;9.17;;;28.60;38.00;;;;;;5034132;28;20443;-55
2023/06/30 10:22:56;;;;;;;11.60;8.83;;;28.60;38.60;;;;;;5033983;28;20445;-56
2023/06/30 10:25:28;;;;;;;12.40;9.00;;;28.60;38.50;;;;;;5034319;28;20512;-54
2023/06/30 10:27:54;;;;;;;11.53;9.80;;;28.50;37.80;;;;;;5034086;28;20401;-54
2023/06/30 10:30:21;;;;;;;12.60;10.93;;;28.50;37.30;;;;;;5033605;28;20859;-57
2023/06/30 10:32:47;;;;;;;10.90;8.37;;;28.40;37.70;;;;;;5033803;28;20507;-54
2023/06/30 10:35:14;;;;;;;11.43;10.23;;;28.30;37.70;;;;;;5034011;28;20452;-54
2023/06/30 10:37:41;;;;;;;18.30;9.67;;;28.20;38.80;;;;;;5033752;28;20401;-56
2023/06/30 10:40:27;;;;;;;9.00;7.97;;;28.20;37.90;;;;;;5033511;28;20495;-54
2023/06/30 10:42:55;;;;;;;11.60;9.10;;;28.20;37.70;;;;;;5033885;28;20405;-54
2023/06/30 10:45:26;;;;;;;10.10;7.87;;;28.20;38.80;;;;;;5032379;28;20440;-57
2023/06/30 10:47:52;;;;;;;12.33;8.93;;;28.20;38.80;;;;;;5033796;28;20416;-54
2023/06/30 10:50:18;;;;;;;9.93;8.93;;;28.20;39.10;;;;;;5033464;28;20446;-55
2023/06/30 10:52:54;;;;;;;12.13;8.60;;;28.20;39.90;;;;;;5032222;28;20196;-57
2023/06/30 10:55:26;;;;;;;10.73;9.23;;;28.20;40.30;;;;;;5033436;28;21001;-54
2023/06/30 10:57:54;;;;;;;11.60;9.13;;;28.20;39.60;;;;;;5033809;28;20460;-55
2023/06/30 11:00:24;;;;;;;24.27;10.00;;;28.20;39.50;;;;;;5033402;28;20468;-53
2023/06/30 11:02:54;;;;;;;10.47;9.40;;;28.20;38.80;;;;;;5033294;28;20408;-59
2023/06/30 11:05:30;;;;;;;10.80;9.00;;;28.20;39.00;;;;;;5032039;28;20423;-57
2023/06/30 11:08:04;;;;;;;13.40;9.83;;;28.20;38.70;;;;;;5033219;28;20408;-54
2023/06/30 11:10:34;;;;;;;9.87;8.87;;;28.20;39.00;;;;;;5033185;28;20428;-58
2023/06/30 11:13:10;;;;;;;10.80;8.60;;;28.20;38.70;;;;;;5033428;28;20412;-57
2023/06/30 11:15:41;;;;;;;17.40;9.67;;;28.20;38.10;;;;;;5031870;28;20979;-57
2023/06/30 11:18:12;;;;;;;11.57;8.80;;;28.20;38.60;;;;;;5033076;28;20471;-55
2023/06/30 11:20:38;;;;;;;11.57;10.10;;;28.30;39.30;;;;;;5032705;28;20427;-57
2023/06/30 11:23:06;;;;;;;12.20;9.40;;;28.40;38.90;;;;;;5032931;28;20465;-58
2023/06/30 11:25:34;;;;;;;11.63;9.23;;;28.50;38.50;;;;;;5032821;28;20419;-57
2023/06/30 11:28:01;;;;;;;11.90;9.00;;;28.60;38.80;;;;;;5032857;28;20420;-55
2023/06/30 11:30:31;;;;;;;12.23;8.70;;;28.60;38.00;;;;;;5032429;28;20456;-58
2023/06/30 11:32:58;;;;;;;11.80;8.27;;;28.60;37.70;;;;;;5032849;28;20447;-55
2023/06/30 11:35:26;;;;;;;10.50;9.50;;;28.60;38.00;;;;;;5032597;28;20453;-56
2023/06/30 11:37:53;;;;;;;11.03;7.50;;;28.60;38.00;;;;;;5032943;28;20409;-56
2023/06/30 11:40:19;;;;;;;9.83;7.77;;;28.70;38.00;;;;;;5032730;28;20494;-55
2023/06/30 11:42:45;;;;;;;9.90;8.50;;;28.70;37.80;;;;;;5032572;28;20405;-55
2023/06/30 11:45:16;;;;;;;10.47;9.00;;;28.80;37.70;;;;;;5032576;28;20409;-56
2023/06/30 11:47:46;;;;;;;10.87;9.63;;;28.80;38.20;;;;;;5032504;28;20919;-58
2023/06/30 11:50:12;;;;;;;10.53;9.17;;;28.90;38.30;;;;;;5032112;28;20431;-57
2023/06/30 11:52:39;;;;;;;10.10;8.17;;;29.10;38.60;;;;;;5032375;28;20891;-56
2023/06/30 11:55:09;;;;;;;9.60;7.27;;;29.20;37.90;;;;;;5032335;28;20467;-58
2023/06/30 11:57:36;;;;;;;8.17;7.47;;;29.30;38.00;;;;;;5032461;28;20411;-58
2023/06/30 12:00:22;;;;;;;8.13;7.33;;;29.40;36.90;;;;;;5031976;28;20425;-55
2023/06/30 12:02:50;;;;;;;6.40;5.80;;;29.60;36.40;;;;;;5032343;28;20939;-54
2023/06/30 12:05:26;;;;;;;7.10;6.33;;;29.60;36.60;;;;;;5032246;28;20417;-56
2023/06/30 12:07:56;;;;;;;8.57;6.33;;;29.60;35.80;;;;;;5032180;28;20962;-54
2023/06/30 12:10:22;;;;;;;7.63;6.80;;;29.70;36.30;;;;;;5031482;28;20795;-56
2023/06/30 12:12:57;;;;;;;11.40;7.97;;;29.70;36.40;;;;;;5031992;28;20421;-56
2023/06/30 12:15:24;;;;;;;9.00;6.63;;;29.90;36.00;;;;;;5032062;28;20454;-54
2023/06/30 12:17:54;;;;;;;7.10;6.40;;;30.00;35.40;;;;;;5032176;28;20419;-54
2023/06/30 12:20:31;;;;;;;6.40;5.80;;;30.10;34.90;;;;;;5030853;28;20432;-57
2023/06/30 12:22:57;;;;;;;8.23;5.90;;;30.20;36.00;;;;;;5032085;28;20409;-55
2023/06/30 12:25:38;;;;;;;8.73;6.10;;;30.10;33.50;;;;;;5032192;28;20412;-54
2023/06/30 12:28:07;;;;;;;6.87;6.17;;;30.20;33.10;;;;;;5032367;28;20162;-56
2023/06/30 12:30:33;;;;;;;9.63;5.93;;;30.10;33.40;;;;;;5031895;28;20483;-54
2023/06/30 12:33:01;;;;;;;8.60;6.10;;;30.10;34.50;;;;;;5031966;28;20500;-56
2023/06/30 12:35:29;;;;;;;7.97;5.93;;;30.20;31.70;;;;;;5031851;28;20483;-56
2023/06/30 12:37:54;;;;;;;7.00;6.30;;;30.10;33.70;;;;;;5031848;28;20417;-56
2023/06/30 12:40:22;;;;;;;7.73;7.00;;;30.20;33.70;;;;;;5031817;28;20441;-54